ePrivacy and GPDR Cookie Consent by Cookie Consent
EmailTwitter


Surface observations / United Kingdom / EGTE (03839)

Regions: Quebec | Canada | USA | Europe | France | UK | Elsewhere
Station
Display
Info & Location for EGTE (03839) | Help decoding METAR

Weather Conditions observed on 2022/01/25 at 15:20 UTC at EXETER AIRPORT, UK (EGTE)

Sky conditions: overcast.

Temperature: 6.0 Celsius.

Dewpoint: 3.0 Celsius.

Relative Humidity: 81%

Winds: Northeast at 4 km/h or 2 knots.

Mean Sea level Pressure: 103.30 kilopascals.

Horizontal visibility: 4.97 statute miles or 7.95 kilometers.

Height of the Ceiling: 701 metres ( 2300 feet ).

Coded METAR:

EGTE 251520Z 05002KT 8000 OVC023 06/03 Q1033=